createdAt,value
2019-01-30T00:02:12.718Z,-0.10
2019-01-30T00:06:11.208Z,0.00
2019-01-30T00:10:11.433Z,0.00
2019-01-30T00:14:09.813Z,0.00
2019-01-30T00:18:08.190Z,0.00
2019-01-30T00:22:06.570Z,0.00
2019-01-30T00:26:04.937Z,0.00
2019-01-30T00:30:04.970Z,0.00
2019-01-30T00:34:03.319Z,-0.10
2019-01-30T00:38:01.734Z,-0.10
2019-01-30T00:42:00.117Z,-0.20
2019-01-30T00:46:02.599Z,-0.20
2019-01-30T00:50:00.974Z,-0.30
2019-01-30T00:53:59.357Z,-0.30
2019-01-30T00:57:57.766Z,-0.40
2019-01-30T01:01:56.138Z,-0.40
2019-01-30T01:05:54.523Z,-0.30
2019-01-30T01:09:52.911Z,-0.40
2019-01-30T01:13:51.203Z,-0.30
2019-01-30T01:17:49.594Z,-0.20
2019-01-30T01:21:47.973Z,-0.10
2019-01-30T01:25:46.984Z,0.00
2019-01-30T01:29:45.348Z,0.00
2019-01-30T01:33:43.738Z,0.00
2019-01-30T01:37:42.556Z,0.00
2019-01-30T01:41:40.858Z,0.00
2019-01-30T01:45:39.225Z,0.00
2019-01-30T01:49:37.608Z,0.10
2019-01-30T01:53:35.986Z,0.00
2019-01-30T01:57:34.738Z,0.10
2019-01-30T02:01:37.882Z,0.10
2019-01-30T02:05:36.258Z,0.10
2019-01-30T02:09:34.634Z,0.10
2019-01-30T02:13:33.018Z,0.10
2019-01-30T02:17:31.393Z,0.10
2019-01-30T02:21:29.710Z,0.10
2019-01-30T02:25:28.093Z,0.10
2019-01-30T02:29:26.517Z,0.20
2019-01-30T02:33:27.613Z,0.20
2019-01-30T02:37:25.990Z,0.10
2019-01-30T02:41:24.365Z,0.10
2019-01-30T02:45:26.644Z,0.10
2019-01-30T02:49:25.046Z,0.00
2019-01-30T02:53:23.456Z,-0.10
2019-01-30T02:57:22.149Z,-0.20
2019-01-30T03:01:20.544Z,-0.20
2019-01-30T03:05:18.918Z,-0.30
2019-01-30T03:09:17.293Z,-0.30
2019-01-30T03:13:15.673Z,-0.30
2019-01-30T03:17:16.291Z,-0.40
2019-01-30T03:21:14.673Z,-0.40
2019-01-30T03:25:15.074Z,-0.40
2019-01-30T03:29:13.499Z,-0.50
2019-01-30T03:33:11.842Z,-0.60
2019-01-30T03:37:10.238Z,-0.60
2019-01-30T03:41:08.632Z,-0.60
2019-01-30T03:45:09.609Z,-0.70
2019-01-30T03:49:07.979Z,-0.70
2019-01-30T03:53:06.346Z,-0.70
2019-01-30T03:57:04.728Z,-0.70
2019-01-30T04:01:05.780Z,-0.60
2019-01-30T04:05:13.567Z,-0.60
2019-01-30T04:09:11.967Z,-0.50
2019-01-30T04:13:10.935Z,-0.40
2019-01-30T04:17:09.345Z,-0.30
2019-01-30T04:21:07.692Z,-0.30
2019-01-30T04:25:07.563Z,-0.30
2019-01-30T04:29:05.897Z,-0.30
2019-01-30T04:33:06.229Z,-0.30
2019-01-30T04:37:04.321Z,-0.20
2019-01-30T04:41:05.882Z,-0.20
2019-01-30T04:45:07.557Z,-0.30
2019-01-30T04:49:17.908Z,-0.30
2019-01-30T04:53:16.313Z,-0.30
2019-01-30T04:57:14.679Z,-0.30
2019-01-30T05:01:13.016Z,-0.30
2019-01-30T05:05:12.330Z,-0.40
2019-01-30T05:09:10.754Z,-0.40
2019-01-30T05:13:12.053Z,-0.40
2019-01-30T05:17:10.421Z,-0.50
2019-01-30T05:21:08.736Z,-0.50
2019-01-30T05:25:08.843Z,-0.60
2019-01-30T05:29:07.158Z,-0.60
2019-01-30T05:33:05.553Z,-0.60
2019-01-30T05:37:03.920Z,-0.60
2019-01-30T05:41:02.346Z,-0.70
2019-01-30T05:45:00.735Z,-0.60
2019-01-30T05:48:59.103Z,-0.60
2019-01-30T05:52:57.501Z,-0.50
2019-01-30T05:56:58.667Z,-0.50
2019-01-30T06:00:57.040Z,-0.50
2019-01-30T06:04:55.381Z,-0.50
2019-01-30T06:08:53.740Z,-0.50
2019-01-30T06:12:52.068Z,-0.50
2019-01-30T06:16:55.145Z,-0.50
2019-01-30T06:20:53.516Z,-0.50
2019-01-30T06:24:53.063Z,-0.60
2019-01-30T06:28:51.407Z,-0.50
2019-01-30T06:32:52.583Z,-0.50
2019-01-30T06:36:50.974Z,-0.60
2019-01-30T06:40:49.334Z,-0.60
2019-01-30T06:44:48.263Z,-0.70
2019-01-30T06:48:46.661Z,-0.80
2019-01-30T06:52:45.028Z,-0.80
2019-01-30T06:56:43.353Z,-0.80
2019-01-30T07:00:41.878Z,-0.80
2019-01-30T07:04:40.205Z,-0.90
2019-01-30T07:08:38.820Z,-0.90
2019-01-30T07:12:37.192Z,-0.90
2019-01-30T07:16:35.601Z,-0.90
2019-01-30T07:20:35.879Z,-0.90
2019-01-30T07:24:34.185Z,-0.80
2019-01-30T07:28:32.568Z,-0.80
2019-01-30T07:32:42.292Z,-0.70
2019-01-30T07:36:38.058Z,-0.70
2019-01-30T07:40:36.434Z,-0.60
2019-01-30T07:44:34.788Z,-0.60
2019-01-30T07:48:33.107Z,-0.50
2019-01-30T07:52:32.826Z,-0.40
2019-01-30T07:56:31.510Z,-0.30
2019-01-30T08:00:30.919Z,-0.20
2019-01-30T08:04:30.863Z,-0.20
2019-01-30T08:08:29.221Z,-0.20
2019-01-30T08:12:27.612Z,-0.10
2019-01-30T08:16:25.989Z,0.00
2019-01-30T08:20:24.379Z,0.00
2019-01-30T08:24:22.796Z,0.10
2019-01-30T08:28:21.850Z,0.20
2019-01-30T08:32:22.288Z,0.20
2019-01-30T08:36:20.437Z,0.20
2019-01-30T08:40:18.789Z,0.20
2019-01-30T08:44:17.181Z,0.20
2019-01-30T08:48:15.477Z,0.20
2019-01-30T08:52:13.850Z,0.30
2019-01-30T08:56:12.205Z,0.30
2019-01-30T09:00:13.878Z,0.30
2019-01-30T09:04:12.265Z,0.30
2019-01-30T09:08:13.404Z,0.30
2019-01-30T09:12:12.782Z,0.40
2019-01-30T09:16:11.154Z,0.30
2019-01-30T09:20:17.746Z,0.30
2019-01-30T09:24:16.313Z,0.30
2019-01-30T09:28:14.700Z,0.30
2019-01-30T09:32:14.550Z,0.30
2019-01-30T09:36:12.934Z,0.40
2019-01-30T09:40:14.338Z,0.60
2019-01-30T09:44:12.649Z,0.80
2019-01-30T09:48:18.189Z,0.90
2019-01-30T09:52:26.471Z,0.80
2019-01-30T09:56:16.578Z,0.80
2019-01-30T10:00:32.045Z,0.70
2019-01-30T10:04:30.362Z,0.60
2019-01-30T10:08:28.795Z,0.60
2019-01-30T10:12:27.459Z,0.60
2019-01-30T10:16:25.857Z,0.60
2019-01-30T10:20:26.475Z,0.60
2019-01-30T10:24:24.909Z,0.70
2019-01-30T10:28:23.298Z,0.60
2019-01-30T10:32:21.658Z,0.70
2019-01-30T10:36:20.050Z,0.70
2019-01-30T10:40:22.542Z,0.60
2019-01-30T10:44:20.918Z,0.60
2019-01-30T10:48:19.282Z,0.60
2019-01-30T10:52:24.062Z,0.60
2019-01-30T10:56:22.440Z,0.70
2019-01-30T11:00:26.650Z,0.70
2019-01-30T11:04:25.035Z,0.80
2019-01-30T11:08:25.448Z,0.90
2019-01-30T11:12:23.798Z,0.90
2019-01-30T11:16:22.198Z,0.80
2019-01-30T11:20:22.135Z,1.60
2019-01-30T11:24:20.659Z,2.70
2019-01-30T11:28:19.040Z,2.20
2019-01-30T11:32:17.423Z,1.60
2019-01-30T11:36:15.810Z,1.20
2019-01-30T11:40:17.094Z,1.00
2019-01-30T11:44:15.489Z,1.00
2019-01-30T11:48:16.610Z,1.00
2019-01-30T11:52:15.330Z,1.20
2019-01-30T11:56:13.710Z,1.30
2019-01-30T12:00:19.570Z,1.40
2019-01-30T12:04:18.317Z,1.60
2019-01-30T12:08:17.353Z,1.80
2019-01-30T12:12:16.014Z,1.80
2019-01-30T12:16:14.434Z,1.80
2019-01-30T12:20:13.486Z,1.80
2019-01-30T12:24:12.700Z,1.80
2019-01-30T12:28:11.087Z,1.90
2019-01-30T12:32:09.475Z,2.00
2019-01-30T12:36:07.837Z,1.90
2019-01-30T12:40:09.555Z,1.80
2019-01-30T12:44:08.382Z,1.70
2019-01-30T12:48:10.876Z,1.70
2019-01-30T12:52:09.354Z,1.70
2019-01-30T12:56:07.848Z,1.80
2019-01-30T13:00:18.397Z,1.80
2019-01-30T13:04:17.034Z,1.60
2019-01-30T13:08:15.413Z,1.40
2019-01-30T13:12:13.791Z,1.30
2019-01-30T13:16:12.259Z,1.20
2019-01-30T13:20:16.157Z,1.20
2019-01-30T13:24:14.521Z,1.10
2019-01-30T13:28:12.901Z,1.10
2019-01-30T13:32:12.391Z,1.00
2019-01-30T13:36:10.680Z,1.00
2019-01-30T13:40:12.304Z,1.00
2019-01-30T13:44:27.484Z,1.00
2019-01-30T13:48:25.880Z,1.00
2019-01-30T13:52:24.653Z,1.00
2019-01-30T13:56:23.028Z,1.00
2019-01-30T14:00:32.915Z,1.00
2019-01-30T14:04:31.279Z,0.90
2019-01-30T14:08:29.984Z,1.00
2019-01-30T14:12:28.336Z,0.90
2019-01-30T14:16:26.676Z,0.90
2019-01-30T14:20:25.033Z,0.90
2019-01-30T14:24:23.442Z,0.90
2019-01-30T14:28:21.841Z,0.80
2019-01-30T14:32:20.283Z,0.80
2019-01-30T14:36:18.817Z,0.70
2019-01-30T14:40:20.187Z,0.70
2019-01-30T14:44:18.578Z,0.70
2019-01-30T14:48:16.944Z,0.80
2019-01-30T14:52:15.311Z,0.80
2019-01-30T14:56:13.649Z,0.70
2019-01-30T15:00:30.366Z,0.70
2019-01-30T15:04:28.713Z,0.70
2019-01-30T15:08:27.308Z,0.60
2019-01-30T15:12:25.721Z,0.60
2019-01-30T15:16:24.040Z,0.50
2019-01-30T15:20:25.152Z,0.50
2019-01-30T15:24:23.531Z,0.40
2019-01-30T15:28:21.893Z,0.30
2019-01-30T15:32:20.648Z,0.30
2019-01-30T15:36:19.060Z,0.20
2019-01-30T15:40:21.368Z,0.20
2019-01-30T15:44:19.798Z,0.20
2019-01-30T15:48:18.179Z,0.20
2019-01-30T15:52:16.770Z,0.20
2019-01-30T15:56:16.566Z,0.20
2019-01-30T16:00:18.571Z,0.20
2019-01-30T16:04:17.640Z,0.10
2019-01-30T16:08:16.184Z,0.10
2019-01-30T16:12:14.552Z,0.10
2019-01-30T16:16:20.631Z,0.10
2019-01-30T16:20:18.983Z,0.10
2019-01-30T16:24:17.349Z,0.10
2019-01-30T16:28:15.773Z,0.10
2019-01-30T16:32:14.125Z,0.10
2019-01-30T16:36:12.518Z,0.00
2019-01-30T16:40:14.166Z,0.00
2019-01-30T16:44:12.557Z,0.00
2019-01-30T16:48:10.936Z,0.10
2019-01-30T16:52:09.322Z,0.10
2019-01-30T16:56:07.686Z,0.00
2019-01-30T17:00:17.774Z,0.00
2019-01-30T17:04:16.167Z,0.00
2019-01-30T17:08:14.561Z,0.00
2019-01-30T17:12:15.963Z,0.00
2019-01-30T17:16:14.367Z,-0.10
2019-01-30T17:20:20.026Z,-0.10
2019-01-30T17:24:18.401Z,-0.10
2019-01-30T17:28:16.761Z,-0.10
2019-01-30T17:36:19.354Z,-0.20
2019-01-30T17:40:21.012Z,-0.20
2019-01-30T17:44:21.389Z,-0.20
2019-01-30T17:48:19.763Z,-0.20
2019-01-30T17:52:18.207Z,-0.20
2019-01-30T17:56:16.596Z,-0.20
2019-01-30T18:00:34.524Z,-0.10
2019-01-30T18:04:32.950Z,-0.10
2019-01-30T18:08:31.315Z,-0.10
2019-01-30T18:12:30.057Z,-0.10
2019-01-30T18:16:28.700Z,0.00
2019-01-30T18:20:29.391Z,0.00
2019-01-30T18:24:28.499Z,0.00
2019-01-30T18:28:28.492Z,0.00
2019-01-30T18:32:26.776Z,0.00
2019-01-30T18:36:25.194Z,0.10
2019-01-30T18:40:31.249Z,0.10
2019-01-30T18:44:29.673Z,0.10
2019-01-30T18:48:28.312Z,0.10
2019-01-30T18:52:26.690Z,0.10
2019-01-30T18:56:25.127Z,0.20
2019-01-30T19:00:34.543Z,0.10
2019-01-30T19:04:32.841Z,0.20
2019-01-30T19:08:31.558Z,0.10
2019-01-30T19:12:30.128Z,0.10
2019-01-30T19:16:28.524Z,0.10
2019-01-30T19:20:29.876Z,0.20
2019-01-30T19:24:29.132Z,0.10
2019-01-30T19:28:27.532Z,0.10
2019-01-30T19:32:25.908Z,0.10
2019-01-30T19:36:24.280Z,0.10
2019-01-30T19:40:24.455Z,0.10
2019-01-30T19:44:22.874Z,0.10
2019-01-30T19:48:21.307Z,0.10
2019-01-30T19:52:19.743Z,0.00
2019-01-30T19:56:18.124Z,0.00
2019-01-30T20:00:22.380Z,0.00
2019-01-30T20:04:20.742Z,0.00
2019-01-30T20:08:19.487Z,0.00
2019-01-30T20:12:17.924Z,0.00
2019-01-30T20:16:16.285Z,0.00
2019-01-30T20:24:36.277Z,0.00
2019-01-30T20:28:34.700Z,0.00
2019-01-30T20:32:34.553Z,0.00
2019-01-30T20:36:32.892Z,0.00
2019-01-30T20:40:31.352Z,0.10
2019-01-30T20:44:29.931Z,0.10
2019-01-30T20:48:28.327Z,0.10
2019-01-30T20:52:28.342Z,0.20
2019-01-30T20:56:27.761Z,0.20
2019-01-30T21:00:34.900Z,0.20
2019-01-30T21:04:34.824Z,0.20
2019-01-30T21:08:53.334Z,0.20
2019-01-30T21:12:51.671Z,0.20
2019-01-30T21:16:50.033Z,0.20
2019-01-30T21:20:48.425Z,0.20
2019-01-30T21:24:47.482Z,0.20
2019-01-30T21:28:45.857Z,0.20
2019-01-30T21:32:44.246Z,0.20
2019-01-30T21:36:42.641Z,0.20
2019-01-30T21:40:41.034Z,0.20
2019-01-30T21:44:39.439Z,0.20
2019-01-30T21:48:37.834Z,0.20
2019-01-30T21:52:36.219Z,0.30
2019-01-30T21:56:34.608Z,0.30
2019-01-30T22:00:33.108Z,0.40
2019-01-30T22:04:31.496Z,0.40
2019-01-30T22:08:38.693Z,0.40
2019-01-30T22:12:37.935Z,0.40
2019-01-30T22:16:36.344Z,0.40
2019-01-30T22:20:34.757Z,0.50
2019-01-30T22:24:33.214Z,0.50
2019-01-30T22:28:31.631Z,0.50
2019-01-30T22:32:34.601Z,0.50
2019-01-30T22:36:30.122Z,0.50
2019-01-30T22:40:28.512Z,0.60
2019-01-30T22:44:26.913Z,0.60
2019-01-30T22:48:25.297Z,0.60
2019-01-30T22:52:23.709Z,0.60
2019-01-30T22:56:26.700Z,0.60
2019-01-30T23:00:57.862Z,0.50
2019-01-30T23:05:11.106Z,0.50
2019-01-30T23:09:38.605Z,0.50
2019-01-30T23:13:40.266Z,0.50
2019-01-30T23:17:53.746Z,0.50
2019-01-30T23:21:55.412Z,0.50
2019-01-30T23:26:05.944Z,0.40
2019-01-30T23:30:25.646Z,0.40
2019-01-30T23:34:59.538Z,0.40
2019-01-30T23:39:12.761Z,0.30
2019-01-30T23:43:23.442Z,0.40
2019-01-30T23:47:34.087Z,0.50
2019-01-30T23:51:52.497Z,0.50
2019-01-30T23:56:08.843Z,0.50
